Time;durP1;ratioP1;P1;durP2;ratioP2;P2;SDS_P1;SDS_P2;PMS_P1;PMS_P2;Temp;Humidity;BMP_temperature;BMP_pressure;BME280_temperature;BME280_humidity;BME280_pressure;Samples;Min_cycle;Max_cycle;Signal;HPM_P1;HPM_P2
2022/07/04 00:01:48;;;;;;;2.53;1.40;;;;;;;21.04;85.14;96383.13;5034066;28;20302;-79
2022/07/04 00:04:15;;;;;;;2.35;1.35;;;;;;;20.90;87.18;96387.72;5033730;28;20199;-80
2022/07/04 00:06:42;;;;;;;2.65;1.73;;;;;;;20.78;87.64;96385.38;5034117;28;20217;-80
2022/07/04 00:09:11;;;;;;;2.15;1.90;;;;;;;20.70;90.04;96376.97;5039757;28;20211;-80
2022/07/04 00:11:38;;;;;;;2.20;1.50;;;;;;;20.66;89.38;96385.00;5042288;28;20318;-80
2022/07/04 00:14:05;;;;;;;3.85;2.20;;;;;;;20.61;88.92;96389.72;5030712;28;20225;-81
2022/07/04 00:16:32;;;;;;;3.30;1.88;;;;;;;20.59;90.29;96383.69;5036402;28;20210;-79
2022/07/04 00:18:59;;;;;;;2.75;1.70;;;;;;;20.55;89.91;96396.38;5040636;28;20213;-80
2022/07/04 00:21:26;;;;;;;3.05;1.90;;;;;;;20.63;89.33;96401.22;5034089;28;20218;-80
2022/07/04 00:23:53;;;;;;;1.77;1.67;;;;;;;20.57;88.87;96399.66;5044921;28;20195;-80
2022/07/04 00:26:21;;;;;;;3.17;1.80;;;;;;;20.52;90.43;96399.69;5027811;28;20281;-81
2022/07/04 00:28:48;;;;;;;3.92;1.95;;;;;;;20.35;90.75;96384.53;5033762;28;20206;-80
2022/07/04 00:31:15;;;;;;;3.65;1.98;;;;;;;20.37;91.37;96393.28;5030951;28;20316;-80
2022/07/04 00:33:42;;;;;;;2.28;1.75;;;;;;;20.43;91.46;96385.00;5036393;28;20203;-80
2022/07/04 00:36:09;;;;;;;2.67;1.60;;;;;;;20.43;91.12;96396.78;5029119;28;20210;-80
2022/07/04 00:38:36;;;;;;;2.25;1.73;;;;;;;20.65;86.98;96399.81;5040143;28;20198;-80
2022/07/04 00:41:03;;;;;;;1.70;1.60;;;;;;;20.68;88.06;96398.41;5035829;28;20212;-81
2022/07/04 00:43:32;;;;;;;1.80;1.58;;;;;;;20.72;86.98;96410.44;5034888;28;20207;-80
2022/07/04 00:45:59;;;;;;;3.53;1.60;;;;;;;20.70;86.99;96398.94;5033244;28;20279;-80
2022/07/04 00:48:26;;;;;;;1.75;1.65;;;;;;;20.63;88.14;96395.72;5038300;28;20206;-81
2022/07/04 00:50:53;;;;;;;2.13;1.60;;;;;;;20.62;87.82;96394.09;5032364;28;20229;-80
2022/07/04 00:53:23;;;;;;;1.77;1.60;;;;;;;20.61;87.80;96398.75;5034200;28;20206;-80
2022/07/04 00:55:51;;;;;;;3.00;1.67;;;;;;;20.60;86.63;96391.63;5040159;28;20237;-80
2022/07/04 00:58:21;;;;;;;2.25;1.58;;;;;;;20.61;87.57;96393.28;5040818;28;20279;-80
2022/07/04 01:00:50;;;;;;;2.78;1.67;;;;;;;20.71;84.58;96386.84;5033840;28;20237;-80
2022/07/04 01:03:17;;;;;;;2.13;1.50;;;;;;;20.71;86.97;96393.16;5037385;28;20207;-79
2022/07/04 01:05:45;;;;;;;2.65;1.50;;;;;;;20.62;87.21;96405.88;5036356;28;20207;-80
2022/07/04 01:08:13;;;;;;;1.80;1.40;;;;;;;20.61;85.43;96408.91;5039774;28;20213;-81
2022/07/04 01:10:40;;;;;;;2.92;1.60;;;;;;;20.59;89.30;96422.09;5030170;28;20269;-80
2022/07/04 01:13:07;;;;;;;1.40;1.30;;;;;;;20.55;90.64;96413.66;5038748;28;20215;-80
2022/07/04 01:15:34;;;;;;;3.42;1.65;;;;;;;20.43;93.16;96399.53;5038548;28;20293;-80
2022/07/04 01:18:03;;;;;;;3.55;1.85;;;;;;;20.34;93.28;96410.31;5037254;28;20317;-79
2022/07/04 01:20:37;;;;;;;2.60;1.75;;;;;;;20.27;94.29;96403.50;5043165;28;20210;-80
2022/07/04 01:23:04;;;;;;;1.85;1.58;;;;;;;20.20;95.33;96403.84;5035053;28;20242;-80
2022/07/04 01:25:32;;;;;;;1.95;1.73;;;;;;;20.16;96.02;96408.28;5039679;28;20239;-80
2022/07/04 01:28:00;;;;;;;3.30;1.90;;;;;;;20.12;96.38;96396.25;5041160;28;20210;-80
2022/07/04 01:30:27;;;;;;;1.92;1.50;;;;;;;20.08;98.53;96395.19;5035306;28;20236;-80
2022/07/04 01:32:54;;;;;;;6.60;1.80;;;;;;;20.02;100.00;96401.84;5054296;28;20207;-80
2022/07/04 01:35:22;;;;;;;2.55;1.70;;;;;;;19.87;100.00;96404.72;5040591;28;20230;-80
2022/07/04 01:37:51;;;;;;;3.13;1.90;;;;;;;19.80;100.00;96409.72;5030823;28;20225;-80
2022/07/04 01:40:18;;;;;;;3.88;2.03;;;;;;;19.64;100.00;96414.53;5050926;28;20215;-80
2022/07/04 01:42:45;;;;;;;3.00;2.00;;;;;;;19.59;100.00;96412.63;5038204;28;20217;-80
2022/07/04 01:45:12;;;;;;;5.53;2.00;;;;;;;19.51;100.00;96398.72;5046451;28;20236;-80
2022/07/04 01:47:41;;;;;;;4.22;1.98;;;;;;;19.36;100.00;96398.81;5040542;28;20210;-80
2022/07/04 01:50:09;;;;;;;5.00;1.85;;;;;;;19.26;100.00;96392.31;5029636;28;20211;-80
2022/07/04 01:52:37;;;;;;;4.28;1.80;;;;;;;19.22;100.00;96398.66;5039844;28;20265;-80
2022/07/04 01:55:07;;;;;;;3.38;2.13;;;;;;;19.18;100.00;96405.78;5040989;28;20214;-80
2022/07/04 01:57:34;;;;;;;2.33;1.70;;;;;;;19.10;100.00;96406.38;5034818;28;20321;-80
2022/07/04 02:02:46;;;;;;;3.15;1.92;;;;;;;19.24;100.00;96426.53;5037532;28;20211;-80
2022/07/04 02:05:13;;;;;;;2.70;2.50;;;;;;;19.27;100.00;96429.53;5041868;28;20210;-80
2022/07/04 02:07:40;;;;;;;5.00;2.75;;;;;;;19.30;100.00;96441.03;5034238;28;20205;-79
2022/07/04 02:10:09;;;;;;;4.50;2.50;;;;;;;19.34;100.00;96464.81;5032337;28;20211;-80
2022/07/04 02:15:22;;;;;;;4.00;2.47;;;;;;;19.13;100.00;96504.34;5053962;28;20215;-80
2022/07/04 02:17:48;;;;;;;2.97;2.67;;;;;;;19.07;100.00;96517.22;5043393;28;20194;-80
2022/07/04 02:20:15;;;;;;;3.47;2.70;;;;;;;19.16;100.00;96517.47;5033504;28;20213;-80
2022/07/04 02:22:42;;;;;;;3.85;2.55;;;;;;;19.20;100.00;96521.28;5028270;28;20190;-80
2022/07/04 02:25:12;;;;;;;3.10;2.28;;;;;;;19.31;100.00;96525.59;5035198;28;20206;-81
2022/07/04 02:27:39;;;;;;;3.67;2.30;;;;;;;19.32;100.00;96538.19;5031918;28;20265;-80
2022/07/04 02:30:08;;;;;;;4.32;2.30;;;;;;;19.26;100.00;96545.63;5040433;28;20215;-80
2022/07/04 02:32:36;;;;;;;3.33;2.10;;;;;;;19.32;100.00;96562.81;5029326;28;20225;-80
2022/07/04 02:35:03;;;;;;;2.92;1.67;;;;;;;19.45;100.00;96588.81;5039659;28;20198;-79
2022/07/04 02:37:30;;;;;;;2.85;1.70;;;;;;;19.57;100.00;96617.50;5028221;28;20198;-80
2022/07/04 02:39:58;;;;;;;2.17;1.80;;;;;;;19.65;100.00;96605.97;5037381;28;20236;-79
2022/07/04 02:42:29;;;;;;;3.58;2.00;;;;;;;19.79;100.00;96616.34;5034908;28;20216;-80
2022/07/04 02:44:56;;;;;;;2.08;1.83;;;;;;;19.86;100.00;96623.13;5036896;28;20503;-80
2022/07/04 02:47:24;;;;;;;2.17;1.98;;;;;;;19.88;100.00;96628.34;5029981;28;20215;-80
2022/07/04 02:49:51;;;;;;;2.03;1.70;;;;;;;19.90;100.00;96634.38;5041942;28;20297;-80
2022/07/04 02:52:18;;;;;;;2.00;1.85;;;;;;;19.93;100.00;96644.75;5038377;28;20214;-80
2022/07/04 02:54:46;;;;;;;3.25;2.00;;;;;;;20.12;100.00;96634.78;5032004;28;20203;-80
2022/07/04 02:57:14;;;;;;;2.00;1.80;;;;;;;20.35;100.00;96645.06;5040251;28;20240;-80
2022/07/04 02:59:42;;;;;;;3.55;2.17;;;;;;;20.55;100.00;96646.84;5031522;28;20206;-80
2022/07/04 03:02:09;;;;;;;5.80;2.50;;;;;;;20.49;100.00;96641.69;5037220;28;20195;-80
2022/07/04 03:04:39;;;;;;;1.80;1.70;;;;;;;20.39;100.00;96656.28;5045823;28;20212;-80
2022/07/04 03:07:08;;;;;;;6.18;2.20;;;;;;;20.32;100.00;96677.69;5041482;28;20269;-79
2022/07/04 03:09:35;;;;;;;2.88;2.00;;;;;;;20.28;100.00;96674.69;5031636;28;20215;-80
2022/07/04 03:12:02;;;;;;;4.47;2.28;;;;;;;20.26;100.00;96685.13;5039862;28;20237;-80
2022/07/04 03:14:29;;;;;;;2.30;2.10;;;;;;;20.13;100.00;96682.19;5031567;28;20202;-80
2022/07/04 03:16:58;;;;;;;2.53;2.03;;;;;;;19.95;100.00;96689.13;5033944;28;20211;-80
2022/07/04 03:19:25;;;;;;;2.40;2.20;;;;;;;19.91;100.00;96685.31;5035752;28;20301;-79
2022/07/04 03:21:52;;;;;;;2.90;2.17;;;;;;;19.89;100.00;96676.56;5033012;28;20211;-80
2022/07/04 03:24:19;;;;;;;2.63;2.20;;;;;;;19.86;100.00;96671.66;5028511;28;20210;-79
2022/07/04 03:26:46;;;;;;;2.92;2.08;;;;;;;19.92;100.00;96654.06;5045527;28;20273;-80
2022/07/04 03:29:13;;;;;;;3.67;2.17;;;;;;;19.92;100.00;96654.06;5033908;28;20214;-80
2022/07/04 03:31:40;;;;;;;3.95;2.42;;;;;;;19.85;100.00;96656.31;5041629;28;20280;-80
2022/07/04 03:34:08;;;;;;;3.78;2.22;;;;;;;19.85;100.00;96659.03;5029420;28;20214;-79
2022/07/04 03:36:36;;;;;;;5.10;2.10;;;;;;;19.82;100.00;96643.19;5038057;28;20245;-79
2022/07/04 03:39:03;;;;;;;3.55;2.55;;;;;;;19.76;100.00;96655.25;5035134;28;20203;-80
2022/07/04 03:41:31;;;;;;;3.95;2.30;;;;;;;19.77;100.00;96676.88;5033832;28;20237;-80
2022/07/04 03:43:58;;;;;;;4.43;2.58;;;;;;;19.81;100.00;96667.03;5032918;28;20209;-80
2022/07/04 03:46:25;;;;;;;4.90;2.58;;;;;;;19.78;100.00;96672.22;5037487;28;20301;-80
2022/07/04 03:48:52;;;;;;;3.78;2.42;;;;;;;19.76;100.00;96666.22;5040260;28;20203;-80
2022/07/04 03:51:20;;;;;;;2.60;2.10;;;;;;;19.71;100.00;96660.75;5040973;28;20233;-80
2022/07/04 03:53:47;;;;;;;4.22;2.70;;;;;;;19.74;100.00;96666.47;5040078;28;20273;-80
2022/07/04 03:56:15;;;;;;;4.72;2.50;;;;;;;19.89;100.00;96666.44;5033582;28;20449;-80
2022/07/04 03:58:43;;;;;;;2.95;2.38;;;;;;;19.91;100.00;96677.09;5033446;28;20233;-78
2022/07/04 04:01:10;;;;;;;2.75;2.55;;;;;;;19.88;100.00;96683.97;5031002;28;20211;-80
2022/07/04 04:06:23;;;;;;;3.88;2.20;;;;;;;19.84;100.00;96680.13;5030353;28;20214;-80
2022/07/04 04:08:50;;;;;;;5.15;2.53;;;;;;;19.84;100.00;96669.19;5040428;28;20612;-80
2022/07/04 04:11:17;;;;;;;2.38;2.17;;;;;;;19.84;100.00;96665.63;5029153;28;20215;-80
2022/07/04 04:13:44;;;;;;;4.22;3.08;;;;;;;19.80;100.00;96661.81;5035452;28;20217;-79
2022/07/04 04:16:11;;;;;;;5.43;3.60;;;;;;;19.74;100.00;96660.19;5036480;28;20297;-80
2022/07/04 04:18:38;;;;;;;2.60;2.40;;;;;;;19.71;100.00;96653.34;5031086;28;20212;-80
2022/07/04 04:21:06;;;;;;;2.83;2.45;;;;;;;19.73;100.00;96650.34;5038228;28;20198;-80
2022/07/04 04:23:34;;;;;;;3.92;2.63;;;;;;;19.74;100.00;96660.19;5042589;28;20203;-80
2022/07/04 04:26:01;;;;;;;4.18;2.50;;;;;;;19.73;100.00;96664.03;5034115;28;20291;-79
2022/07/04 04:28:28;;;;;;;2.90;2.47;;;;;;;19.65;100.00;96663.50;5031331;28;20219;-80
2022/07/04 04:30:55;;;;;;;2.70;2.50;;;;;;;19.59;100.00;96672.03;5034922;28;20215;-80
2022/07/04 04:33:22;;;;;;;4.97;2.80;;;;;;;19.54;100.00;96675.63;5042421;28;20240;-80
2022/07/04 04:35:49;;;;;;;3.42;2.60;;;;;;;19.57;100.00;96688.72;5038112;28;20216;-80
2022/07/04 04:38:16;;;;;;;2.78;2.58;;;;;;;19.60;100.00;96692.84;5048599;28;20238;-79
2022/07/04 04:40:44;;;;;;;3.13;2.53;;;;;;;19.62;100.00;96688.72;5045074;28;20209;-80
2022/07/04 04:43:11;;;;;;;3.45;2.42;;;;;;;19.61;100.00;96694.50;5044522;28;20297;-79
2022/07/04 04:45:39;;;;;;;4.65;2.45;;;;;;;19.60;100.00;96696.41;5042985;28;20202;-78
2022/07/04 04:48:07;;;;;;;4.05;2.20;;;;;;;19.62;100.00;96704.34;5037213;28;20298;-79
2022/07/04 04:50:34;;;;;;;3.65;2.67;;;;;;;19.64;100.00;96715.84;5031359;28;20209;-78
2022/07/04 04:53:02;;;;;;;2.80;2.40;;;;;;;19.62;100.00;96731.75;5030278;28;20315;-78
2022/07/04 04:55:29;;;;;;;3.58;2.50;;;;;;;19.63;100.00;96734.22;5036888;28;20206;-78
2022/07/04 04:57:57;;;;;;;3.28;2.35;;;;;;;19.63;100.00;96734.22;5045105;28;20266;-78
2022/07/04 05:00:24;;;;;;;4.80;2.47;;;;;;;19.56;100.00;96727.38;5037810;28;20202;-79
2022/07/04 05:02:52;;;;;;;2.67;2.47;;;;;;;19.64;100.00;96724.06;5039803;28;20218;-79
2022/07/04 05:05:19;;;;;;;2.67;2.20;;;;;;;19.75;100.00;96724.84;5034742;28;20205;-79
2022/07/04 05:07:46;;;;;;;4.30;2.80;;;;;;;19.83;100.00;96727.00;5039581;28;20213;-79
2022/07/04 05:10:15;;;;;;;6.50;2.67;;;;;;;19.79;100.00;96745.13;5056697;28;20228;-79
2022/07/04 05:12:42;;;;;;;4.30;2.65;;;;;;;19.62;100.00;96740.78;5040236;28;20222;-79
2022/07/04 05:15:11;;;;;;;3.05;2.15;;;;;;;19.50;100.00;96748.47;5038872;28;20202;-79
2022/07/04 05:17:38;;;;;;;3.30;2.55;;;;;;;19.45;100.00;96753.13;5049274;28;20210;-79
2022/07/04 05:20:07;;;;;;;3.25;2.55;;;;;;;19.45;100.00;96755.84;5047949;28;20198;-79
2022/07/04 05:22:35;;;;;;;2.95;2.60;;;;;;;19.41;100.00;96774.75;5043247;28;20214;-79
2022/07/04 05:25:02;;;;;;;3.83;2.40;;;;;;;19.25;100.00;96770.38;5034255;28;20203;-79
2022/07/04 05:27:30;;;;;;;3.28;2.58;;;;;;;19.14;100.00;96775.03;5040385;28;20234;-80
2022/07/04 05:29:58;;;;;;;3.72;2.85;;;;;;;19.06;100.00;96788.44;5036768;28;20266;-79
2022/07/04 05:32:26;;;;;;;4.00;3.22;;;;;;;19.04;100.00;96786.00;5040598;28;20223;-80
2022/07/04 05:34:54;;;;;;;3.70;2.97;;;;;;;18.99;100.00;96786.00;5041026;28;20203;-79
2022/07/04 05:37:21;;;;;;;4.03;2.92;;;;;;;18.94;100.00;96783.25;5043650;28;20215;-80
2022/07/04 05:39:49;;;;;;;4.65;2.90;;;;;;;18.82;100.00;96789.00;5040893;28;20224;-80
2022/07/04 05:42:16;;;;;;;4.20;3.17;;;;;;;18.77;100.00;96801.84;5031969;28;20207;-80
2022/07/04 05:44:43;;;;;;;4.97;3.53;;;;;;;18.68;100.00;96793.34;5038766;28;20199;-80
2022/07/04 05:47:10;;;;;;;4.00;2.90;;;;;;;18.64;100.00;96786.75;5026911;28;20206;-81
2022/07/04 05:49:39;;;;;;;4.20;3.03;;;;;;;18.68;100.00;96792.53;5039724;28;20248;-79
2022/07/04 05:52:06;;;;;;;4.10;3.30;;;;;;;18.60;100.00;96782.94;5033800;28;20304;-80
2022/07/04 05:54:33;;;;;;;6.80;3.90;;;;;;;18.55;100.00;96782.88;5031094;28;20210;-80
2022/07/04 05:57:01;;;;;;;8.27;3.70;;;;;;;18.42;100.00;96775.22;5038472;28;20214;-78
2022/07/04 05:59:29;;;;;;;6.37;4.00;;;;;;;18.34;100.00;96759.34;5035023;28;20269;-80
2022/07/04 06:01:56;;;;;;;5.03;3.40;;;;;;;18.18;100.00;96768.56;5032160;28;20206;-79
2022/07/04 06:04:23;;;;;;;4.93;3.63;;;;;;;18.13;100.00;96767.47;5036760;28;20211;-80
2022/07/04 06:06:52;;;;;;;6.63;4.33;;;;;;;18.14;100.00;96777.31;5034607;28;20268;-79
2022/07/04 06:09:19;;;;;;;4.53;3.90;;;;;;;18.06;100.00;96780.56;5033857;28;20210;-79
2022/07/04 06:11:46;;;;;;;6.23;4.13;;;;;;;18.17;100.00;96784.16;5037951;28;20206;-77
2022/07/04 06:14:13;;;;;;;8.03;3.90;;;;;;;18.17;100.00;96759.56;5029588;28;20282;-79
2022/07/04 06:16:40;;;;;;;5.23;3.90;;;;;;;18.13;100.00;96759.25;5037619;28;20198;-81
2022/07/04 06:19:08;;;;;;;7.33;4.33;;;;;;;17.99;100.00;96736.25;5035294;28;20214;-82
2022/07/04 06:21:35;;;;;;;10.33;4.50;;;;;;;17.94;100.00;96736.25;5032384;28;20211;-81
2022/07/04 06:24:04;;;;;;;6.33;4.00;;;;;;;18.03;100.00;96747.50;5033692;28;20198;-81
2022/07/04 06:26:31;;;;;;;7.40;4.27;;;;;;;18.07;100.00;96740.38;5051669;28;20269;-81
2022/07/04 06:28:58;;;;;;;6.10;4.10;;;;;;;18.07;100.00;96743.13;5040566;28;20214;-81
2022/07/04 06:31:26;;;;;;;4.40;3.90;;;;;;;18.10;100.00;96746.16;5034094;28;20249;-81
2022/07/04 06:36:37;;;;;;;5.60;4.13;;;;;;;17.97;100.00;96732.97;5035192;28;20240;-82
2022/07/04 06:39:06;;;;;;;4.40;3.40;;;;;;;17.98;100.00;96729.16;5033800;28;20202;-82
2022/07/04 06:41:33;;;;;;;7.90;4.13;;;;;;;17.96;100.00;96719.56;5038204;28;20203;-82
2022/07/04 06:44:00;;;;;;;8.40;3.70;;;;;;;18.03;100.00;96704.56;5031134;28;20198;-81
2022/07/04 06:46:27;;;;;;;7.17;3.87;;;;;;;18.04;100.00;96686.25;5040930;28;20206;-81
2022/07/04 06:48:54;;;;;;;5.77;3.67;;;;;;;18.17;100.00;96669.38;5027908;28;20198;-79
2022/07/04 06:51:21;;;;;;;4.00;3.60;;;;;;;18.17;100.00;96663.06;5037649;28;20215;-81
2022/07/04 06:53:48;;;;;;;7.50;3.40;;;;;;;18.17;100.00;96643.94;5039007;28;20237;-81
2022/07/04 06:56:16;;;;;;;5.63;3.37;;;;;;;18.30;100.00;96632.47;5028814;28;20230;-81
2022/07/04 06:58:43;;;;;;;5.03;3.33;;;;;;;18.37;100.00;96619.38;5044029;28;20207;-81
2022/07/04 07:01:11;;;;;;;5.27;3.60;;;;;;;18.46;100.00;96609.50;5040102;28;20213;-81
2022/07/04 07:03:38;;;;;;;5.77;3.17;;;;;;;18.56;100.00;96598.56;5043742;28;20206;-81
2022/07/04 07:06:05;;;;;;;5.20;2.87;;;;;;;18.70;100.00;96594.22;5037639;28;20203;-81
2022/07/04 07:08:32;;;;;;;6.03;3.50;;;;;;;18.92;100.00;96584.88;5037644;28;20203;-80
2022/07/04 07:11:12;;;;;;;3.90;2.97;;;;;;;19.01;100.00;96572.25;5033152;28;20218;-81
2022/07/04 07:13:41;;;;;;;3.83;3.10;;;;;;;19.11;100.00;96574.97;5030135;28;20221;-80
2022/07/04 07:16:08;;;;;;;6.10;3.60;;;;;;;19.05;100.00;96574.19;5040149;28;20203;-81
2022/07/04 07:18:35;;;;;;;3.77;3.17;;;;;;;18.99;100.00;96585.38;5036981;28;20217;-81
2022/07/04 07:21:02;;;;;;;4.50;2.97;;;;;;;18.98;100.00;96594.69;5045250;28;20202;-81
2022/07/04 07:23:29;;;;;;;4.43;3.20;;;;;;;18.95;100.00;96584.31;5040115;28;20289;-80
2022/07/04 07:25:56;;;;;;;4.90;3.00;;;;;;;18.90;100.00;96577.75;5040653;28;20241;-81
2022/07/04 07:28:23;;;;;;;6.17;3.47;;;;;;;18.90;100.00;96583.22;5027978;28;20261;-81
2022/07/04 07:30:51;;;;;;;5.83;3.40;;;;;;;18.88;100.00;96571.72;5037250;28;20248;-81
2022/07/04 07:33:18;;;;;;;6.13;3.50;;;;;;;18.95;100.00;96565.16;5038264;28;20221;-80
2022/07/04 07:35:45;;;;;;;8.30;3.20;;;;;;;19.02;100.00;96563.78;5038931;28;20199;-79
2022/07/04 07:38:12;;;;;;;3.87;3.00;;;;;;;19.04;100.00;96544.34;5031192;28;20218;-81
2022/07/04 07:40:40;;;;;;;4.37;2.70;;;;;;;19.07;100.00;96538.28;5033717;28;20237;-80
2022/07/04 07:43:07;;;;;;;6.83;3.23;;;;;;;18.96;100.00;96542.19;5030154;28;20298;-81
2022/07/04 07:45:34;;;;;;;4.83;3.40;;;;;;;18.93;100.00;96538.06;5043413;28;20206;-80
2022/07/04 07:48:03;;;;;;;5.10;3.00;;;;;;;18.87;100.00;96531.81;5036258;28;20700;-80
2022/07/04 07:50:31;;;;;;;4.57;2.93;;;;;;;18.87;100.00;96525.53;5039854;28;20202;-78
2022/07/04 07:52:58;;;;;;;5.67;2.90;;;;;;;18.88;100.00;96536.16;5027005;28;20241;-81
2022/07/04 07:55:25;;;;;;;3.97;3.40;;;;;;;18.97;100.00;96532.88;5032690;28;20210;-80
2022/07/04 07:57:53;;;;;;;6.60;3.13;;;;;;;19.06;100.00;96525.69;5031526;28;20202;-81
2022/07/04 08:00:20;;;;;;;5.17;3.00;;;;;;;19.04;100.00;96517.81;5035695;28;20230;-77
2022/07/04 08:05:33;;;;;;;5.63;3.20;;;;;;;19.11;100.00;96501.06;5037227;28;20272;-81
2022/07/04 08:08:00;;;;;;;4.27;3.10;;;;;;;19.07;100.00;96499.97;5040246;28;20215;-81
2022/07/04 08:10:27;;;;;;;3.30;2.70;;;;;;;19.11;100.00;96485.47;5030834;28;20289;-81
2022/07/04 08:12:55;;;;;;;2.77;2.57;;;;;;;19.18;100.00;96493.38;5028628;28;20225;-81
2022/07/04 08:15:23;;;;;;;7.60;2.53;;;;;;;19.29;100.00;96484.00;5044403;28;20235;-80
2022/07/04 08:17:50;;;;;;;3.78;2.72;;;;;;;19.40;100.00;96485.56;5039154;28;20210;-81
2022/07/04 08:20:17;;;;;;;3.63;2.83;;;;;;;19.53;100.00;96482.25;5035878;28;20226;-80
2022/07/04 08:22:45;;;;;;;4.47;2.55;;;;;;;19.61;100.00;96484.38;5035450;28;20206;-80
2022/07/04 08:25:14;;;;;;;3.20;2.50;;;;;;;19.63;100.00;96484.09;5037524;28;20270;-81
2022/07/04 08:27:42;;;;;;;3.53;2.33;;;;;;;19.67;100.00;96484.34;5041545;28;20230;-80
2022/07/04 08:30:09;;;;;;;3.47;2.60;;;;;;;19.72;100.00;96484.31;5040499;28;20214;-80
2022/07/04 08:32:36;;;;;;;2.88;2.58;;;;;;;19.72;100.00;96479.66;5034903;28;20202;-80
2022/07/04 08:35:05;;;;;;;4.43;2.40;;;;;;;19.73;100.00;96484.03;5043062;28;20251;-81
2022/07/04 08:37:33;;;;;;;3.05;2.40;;;;;;;19.68;100.00;96483.25;5039482;28;20202;-80
2022/07/04 08:40:06;;;;;;;3.25;2.90;;;;;;;19.76;100.00;96479.88;5041836;28;20241;-81
2022/07/04 08:42:37;;;;;;;3.47;2.10;;;;;;;19.84;100.00;96490.25;5040562;28;20234;-81
2022/07/04 08:45:05;;;;;;;6.18;2.42;;;;;;;19.91;100.00;96493.47;5056296;28;20206;-80
2022/07/04 08:47:35;;;;;;;3.70;2.33;;;;;;;19.94;100.00;96488.25;5037012;28;20199;-81
2022/07/04 08:50:11;;;;;;;3.67;2.30;;;;;;;20.00;100.00;96475.31;5037327;28;20301;-80
2022/07/04 08:52:41;;;;;;;3.22;2.30;;;;;;;20.13;100.00;96474.66;5038883;28;20507;-80
2022/07/04 09:00:48;;;;;;;3.67;2.38;;;;;;;20.49;100.00;96468.88;5035949;28;20206;-80
2022/07/04 09:03:15;;;;;;;2.70;2.28;;;;;;;20.56;100.00;96467.41;5042337;28;20293;-81
2022/07/04 09:05:42;;;;;;;4.15;2.22;;;;;;;20.60;100.00;96478.59;5040893;28;20371;-81
2022/07/04 09:08:09;;;;;;;2.42;2.20;;;;;;;20.62;100.00;96481.88;5034405;28;20226;-79
2022/07/04 09:10:38;;;;;;;2.35;2.13;;;;;;;20.67;100.00;96487.34;5038761;28;20222;-81
2022/07/04 09:13:07;;;;;;;3.15;2.53;;;;;;;20.70;100.00;96478.50;5027832;28;20312;-81
2022/07/04 09:15:34;;;;;;;4.25;2.20;;;;;;;20.74;100.00;96472.16;5043894;28;20209;-81
2022/07/04 09:18:02;;;;;;;4.50;2.40;;;;;;;20.71;100.00;96464.50;5038978;28;20214;-81
2022/07/04 09:20:32;;;;;;;2.72;2.20;;;;;;;20.69;100.00;96474.94;5026708;28;20214;-81
2022/07/04 09:22:59;;;;;;;2.38;2.17;;;;;;;20.80;100.00;96475.66;5039680;28;20289;-80
2022/07/04 09:25:27;;;;;;;5.15;2.40;;;;;;;20.88;100.00;96483.25;5033018;28;20557;-82
2022/07/04 09:27:57;;;;;;;2.83;2.22;;;;;;;20.86;100.00;96479.97;5040878;28;20217;-81
2022/07/04 09:30:25;;;;;;;2.83;2.08;;;;;;;20.88;100.00;96485.97;5039295;28;20221;-81
2022/07/04 09:32:59;;;;;;;2.50;2.08;;;;;;;20.99;100.00;96486.69;5037490;28;20199;-81
2022/07/04 09:35:28;;;;;;;8.45;3.80;;;;;;;21.09;100.00;96475.59;5042098;28;20213;-81
2022/07/04 09:37:57;;;;;;;3.95;2.30;;;;;;;21.23;100.00;96467.47;5044847;28;20212;-81
2022/07/04 09:40:26;;;;;;;6.85;2.50;;;;;;;21.47;100.00;96470.97;5045043;28;20246;-81
2022/07/04 09:42:57;;;;;;;4.28;2.20;;;;;;;21.74;100.00;96470.31;5029082;28;20275;-81
2022/07/04 09:45:24;;;;;;;2.60;2.13;;;;;;;21.88;100.00;96477.47;5032007;28;20203;-81
2022/07/04 09:47:54;;;;;;;2.58;1.98;;;;;;;22.02;100.00;96476.78;5031810;28;20203;-80
2022/07/04 09:50:24;;;;;;;3.05;2.30;;;;;;;21.95;100.00;96481.81;5038916;28;20207;-81
2022/07/04 09:52:54;;;;;;;3.65;2.10;;;;;;;21.88;100.00;96476.66;5032142;28;20208;-80
2022/07/04 09:55:24;;;;;;;2.72;2.35;;;;;;;21.93;100.00;96478.53;5029688;28;20213;-80
2022/07/04 09:57:52;;;;;;;2.42;2.20;;;;;;;21.99;100.00;96471.84;5036937;28;20290;-81
2022/07/04 10:00:23;;;;;;;3.20;1.90;;;;;;;22.08;100.00;96459.88;5049772;28;20210;-81
2022/07/04 10:02:50;;;;;;;2.30;2.10;;;;;;;22.22;100.00;96454.41;5035366;28;20222;-81
2022/07/04 10:05:23;;;;;;;3.63;2.28;;;;;;;22.39;100.00;96460.16;5037214;28;20203;-81
2022/07/04 10:07:50;;;;;;;2.92;2.08;;;;;;;22.78;100.00;96470.75;5033550;28;20211;-81
2022/07/04 10:10:32;;;;;;;3.35;2.20;;;;;;;23.18;100.00;96477.38;5034565;28;20325;-81
2022/07/04 10:13:01;;;;;;;5.22;2.63;;;;;;;23.53;100.00;96469.47;5049423;28;20207;-81
2022/07/04 10:15:31;;;;;;;4.72;2.42;;;;;;;23.63;100.00;96464.56;5038186;28;20206;-81
2022/07/04 10:17:58;;;;;;;3.30;2.40;;;;;;;23.77;100.00;96453.47;5038606;28;20207;-81
2022/07/04 10:20:25;;;;;;;3.75;2.40;;;;;;;24.02;100.00;96458.38;5044992;28;20320;-80
2022/07/04 10:22:53;;;;;;;4.38;2.85;;;;;;;24.33;100.00;96458.44;5040745;28;20207;-80
2022/07/04 10:25:20;;;;;;;5.47;2.78;;;;;;;24.57;100.00;96460.06;5034903;28;20234;-80
2022/07/04 10:27:50;;;;;;;4.28;2.40;;;;;;;24.55;98.58;96457.59;5037836;28;20225;-80
2022/07/04 10:30:22;;;;;;;3.80;2.55;;;;;;;24.63;99.26;96451.31;5029224;28;20206;-80
2022/07/04 10:32:52;;;;;;;4.78;2.40;;;;;;;24.71;98.02;96442.25;5034734;28;20211;-80
2022/07/04 10:35:56;;;;;;;2.55;2.35;;;;;;;24.80;95.75;96445.88;5038384;28;20237;-80
2022/07/04 10:38:25;;;;;;;3.55;2.60;;;;;;;25.06;97.13;96439.66;5035721;28;20206;-80
2022/07/04 10:40:54;;;;;;;3.42;2.40;;;;;;;25.17;95.24;96441.81;5035291;28;20213;-80
2022/07/04 10:44:01;;;;;;;3.22;2.72;;;;;;;24.96;95.21;96442.69;5042042;28;20213;-81
2022/07/04 10:46:33;;;;;;;3.03;2.50;;;;;;;25.01;92.27;96446.13;5048608;28;20219;-81
2022/07/04 10:49:04;;;;;;;4.45;2.47;;;;;;;25.06;91.53;96446.00;5037685;28;20206;-80
2022/07/04 10:51:38;;;;;;;3.53;2.50;;;;;;;24.96;91.84;96437.19;5032320;28;20295;-81
2022/07/04 10:54:08;;;;;;;3.08;2.50;;;;;;;25.03;89.70;96434.75;5033805;28;20222;-81
2022/07/04 10:56:44;;;;;;;2.88;2.33;;;;;;;25.27;90.67;96435.13;5034718;28;20222;-80
2022/07/04 10:59:14;;;;;;;3.28;2.28;;;;;;;25.43;90.21;96428.03;5035680;28;20209;-80
2022/07/04 11:01:47;;;;;;;4.57;2.60;;;;;;;25.37;90.01;96431.25;5036303;28;20206;-80
2022/07/04 11:05:02;;;;;;;2.70;2.50;;;;;;;25.70;86.22;96426.91;5033941;28;20296;-80
2022/07/04 11:08:02;;;;;;;3.00;2.33;;;;;;;26.05;84.32;96408.34;4977796;28;20242;-80
2022/07/04 11:10:33;;;;;;;4.38;2.53;;;;;;;26.11;80.35;96417.31;5037252;28;20295;-81
2022/07/04 11:13:14;;;;;;;4.13;2.50;;;;;;;26.15;80.12;96409.97;5033156;28;20237;-80
2022/07/04 11:16:15;;;;;;;3.65;2.53;;;;;;;26.12;79.29;96400.34;5029148;28;20210;-81
2022/07/04 11:18:43;;;;;;;2.30;2.10;;;;;;;26.33;80.66;96395.78;5039922;28;20206;-80
2022/07/04 11:21:25;;;;;;;2.72;2.22;;;;;;;26.35;78.42;96396.28;5038287;28;20215;-80
2022/07/04 11:23:54;;;;;;;2.25;2.05;;;;;;;26.52;78.13;96389.06;5039694;28;20206;-80
2022/07/04 11:26:22;;;;;;;2.20;2.00;;;;;;;26.52;79.51;96391.81;5028835;28;20230;-81
2022/07/04 11:28:50;;;;;;;2.65;2.17;;;;;;;26.73;78.23;96387.16;5036498;28;20269;-80
2022/07/04 11:31:18;;;;;;;2.28;2.05;;;;;;;27.04;75.08;96386.91;5030455;28;20233;-81
2022/07/04 11:33:46;;;;;;;2.33;2.13;;;;;;;26.90;74.48;96381.53;5030038;28;20290;-81
2022/07/04 11:36:16;;;;;;;2.28;2.08;;;;;;;26.57;74.20;96380.56;5040924;28;20204;-82
2022/07/04 11:38:56;;;;;;;2.97;2.13;;;;;;;26.79;73.85;96374.78;5036575;28;20212;-81
2022/07/04 11:47:06;;;;;;;2.40;2.20;;;;;;;26.80;75.17;96368.06;5042892;28;20252;-81
2022/07/04 11:49:34;;;;;;;3.60;2.25;;;;;;;26.67;76.59;96369.13;5035667;28;20202;-80
2022/07/04 11:52:01;;;;;;;3.53;2.25;;;;;;;26.63;76.81;96362.59;5037093;28;20202;-80
2022/07/04 11:54:30;;;;;;;4.00;2.45;;;;;;;26.52;77.15;96359.41;5045580;28;20226;-80
2022/07/04 11:57:11;;;;;;;2.67;2.25;;;;;;;26.45;77.02;96350.00;5035115;28;20225;-81
2022/07/04 11:59:38;;;;;;;3.58;2.45;;;;;;;26.32;74.29;96352.63;5040388;28;20209;-80